CheckWX is a tool to help pilots better visualize weather data.  It is not intended as a substitute for an official pre-flight weather briefing.

05:14:08 UTC

ETNH METAR
Hohn Airport
Germany
Current

54 mins ago

ETNH 240420Z 17004KT 9999 01/M04 Q1037 BLU+
Observed
Feb-24 @ 04:20 UTC
Wind
  • 170° at 4 KTS
Visibility
10,000+ meters
Temperature
C / 34°F
Dewpoint
-4°C / 25°F
Humidity
70%
Altimeter
30.62" Hg
Pressure
1036.91 hPa
Previous

1 hour ago

ETNH 240350Z 24002KT 9999 M02/M04 Q1037 BLU+
Observed
Feb-24 @ 03:50 UTC
Wind
  • 240° at 2 KTS
Visibility
10,000+ meters
Temperature
-2°C / 28°F
Dewpoint
-4°C / 25°F
Humidity
86%
Altimeter
30.62" Hg
Pressure
1036.91 hPa
Previous

2 hours ago

ETNH 240320Z AUTO 14004KT //// // ////// M02/M05 Q1037 ///
Observed
Feb-24 @ 03:20 UTC
Wind
  • 140° at 4 KTS
Visibility
Temperature
-2°C / 28°F
Dewpoint
-5°C / 23°F
Humidity
80%
Altimeter
30.62" Hg
Pressure
1036.91 hPa